Time;durP1;ratioP1;P1;durP2;ratioP2;P2;SDS_P1;SDS_P2;PMS_P1;PMS_P2;Temp;Humidity;BMP_temperature;BMP_pressure;BME280_temperature;BME280_humidity;BME280_pressure;Samples;Min_cycle;Max_cycle;Signal;HPM_P1;HPM_P2
2021/12/12 00:01:24;;;;;;;2.55;2.33;;;;;;;;;;4975622;28;20725;-46
2021/12/12 00:03:53;;;;;;;2.40;2.05;;;;;;;;;;4966417;28;20260;-46
2021/12/12 00:06:19;;;;;;;2.40;2.20;;;;;;;;;;4971487;28;20180;-46
2021/12/12 00:08:47;;;;;;;2.13;1.92;;;;;;;;;;4967865;28;20178;-46
2021/12/12 00:11:15;;;;;;;2.65;2.30;;;;;;;;;;4967576;28;20569;-46
2021/12/12 00:13:46;;;;;;;3.97;2.58;;;;;;;;;;4966866;28;20268;-46
2021/12/12 00:16:12;;;;;;;2.20;2.00;;;;;;;;;;4975152;28;20181;-46
2021/12/12 00:18:38;;;;;;;2.63;2.42;;;;;;;;;;4974541;28;20209;-46
2021/12/12 00:21:05;;;;;;;2.35;1.98;;;;;;;;;;4973054;28;20223;-46
2021/12/12 00:23:31;;;;;;;2.60;2.40;;;;;;;;;;4971749;28;20187;-46
2021/12/12 00:25:58;;;;;;;2.42;2.20;;;;;;;;;;4967173;28;20190;-46
2021/12/12 00:28:25;;;;;;;2.80;2.60;;;;;;;;;;4972771;28;20201;-46
2021/12/12 00:30:53;;;;;;;2.70;2.50;;;;;;;;;;4971427;28;20225;-46
2021/12/12 00:33:19;;;;;;;2.50;2.30;;;;;;;;;;4975692;28;20228;-46
2021/12/12 00:35:45;;;;;;;2.97;2.40;;;;;;;;;;4972844;28;20229;-46
2021/12/12 00:38:14;;;;;;;2.58;2.38;;;;;;;;;;4972414;28;20553;-46
2021/12/12 00:40:43;;;;;;;2.30;2.10;;;;;;;;;;4964375;28;20506;-46
2021/12/12 00:43:15;;;;;;;3.17;2.65;;;;;;;;;;4970491;28;20174;-46
2021/12/12 00:45:41;;;;;;;2.65;2.45;;;;;;;;;;4968342;28;20464;-46
2021/12/12 00:48:07;;;;;;;3.00;2.33;;;;;;;;;;4966255;28;20560;-46
2021/12/12 00:50:35;;;;;;;3.05;2.42;;;;;;;;;;4973107;28;20182;-46
2021/12/12 00:53:03;;;;;;;2.40;2.20;;;;;;;;;;4966256;28;20198;-46
2021/12/12 00:55:29;;;;;;;2.40;2.20;;;;;;;;;;4971660;28;20192;-46
2021/12/12 00:57:55;;;;;;;2.35;2.15;;;;;;;;;;4970342;28;20739;-46
2021/12/12 01:00:25;;;;;;;2.53;2.08;;;;;;;;;;4970819;28;20877;-46
2021/12/12 01:02:51;;;;;;;2.30;2.10;;;;;;;;;;4964086;28;20608;-46
2021/12/12 01:05:17;;;;;;;2.67;2.25;;;;;;;;;;4973154;28;20182;-46
2021/12/12 01:07:45;;;;;;;2.10;1.90;;;;;;;;;;4966893;28;20489;-46
2021/12/12 01:10:15;;;;;;;2.70;2.40;;;;;;;;;;4974152;28;20202;-45
2021/12/12 01:12:41;;;;;;;2.22;2.10;;;;;;;;;;4956450;28;20187;-46
2021/12/12 01:15:24;;;;;;;2.80;2.53;;;;;;;;;;4969279;28;20182;-46
2021/12/12 01:17:52;;;;;;;2.38;2.17;;;;;;;;;;4961913;28;20186;-46
2021/12/12 01:20:20;;;;;;;2.53;2.10;;;;;;;;;;4973495;28;20227;-46
2021/12/12 01:22:47;;;;;;;2.67;2.40;;;;;;;;;;4974934;28;20174;-46
2021/12/12 01:25:20;;;;;;;2.88;2.55;;;;;;;;;;4967531;28;20186;-46
2021/12/12 01:27:47;;;;;;;2.83;2.20;;;;;;;;;;4972125;28;20182;-46
2021/12/12 01:30:14;;;;;;;2.60;2.40;;;;;;;;;;4965610;28;20225;-46
2021/12/12 01:32:40;;;;;;;2.88;2.38;;;;;;;;;;4970705;28;20249;-46
2021/12/12 01:35:14;;;;;;;2.38;2.17;;;;;;;;;;4961713;28;20190;-46
2021/12/12 01:37:43;;;;;;;2.70;2.30;;;;;;;;;;4972579;28;20594;-46
2021/12/12 01:40:16;;;;;;;2.45;2.25;;;;;;;;;;4969522;28;20201;-46
2021/12/12 01:42:45;;;;;;;2.50;2.30;;;;;;;;;;4971971;28;20178;-45
2021/12/12 01:45:14;;;;;;;2.00;1.88;;;;;;;;;;4964598;28;20572;-45
2021/12/12 01:47:46;;;;;;;2.40;2.20;;;;;;;;;;4971771;28;20266;-46
2021/12/12 01:50:14;;;;;;;2.20;2.00;;;;;;;;;;4971210;28;20293;-46
2021/12/12 01:52:41;;;;;;;2.38;2.17;;;;;;;;;;4964887;28;20620;-46
2021/12/12 01:55:12;;;;;;;2.22;2.03;;;;;;;;;;4965825;28;20643;-46
2021/12/12 01:57:39;;;;;;;2.22;2.03;;;;;;;;;;4968815;28;20194;-46
2021/12/12 02:00:13;;;;;;;2.17;1.90;;;;;;;;;;4973592;28;20209;-46
2021/12/12 02:02:40;;;;;;;2.30;2.10;;;;;;;;;;4955362;28;20537;-46
2021/12/12 02:05:09;;;;;;;2.00;1.90;;;;;;;;;;4967412;28;20264;-46
2021/12/12 02:07:37;;;;;;;2.15;2.03;;;;;;;;;;4965257;28;20177;-46
2021/12/12 02:10:08;;;;;;;2.10;1.90;;;;;;;;;;4967378;28;20189;-46
2021/12/12 02:12:35;;;;;;;2.20;2.00;;;;;;;;;;4971519;28;20240;-45
2021/12/12 02:15:01;;;;;;;2.22;2.10;;;;;;;;;;4972812;28;20190;-47
2021/12/12 02:17:34;;;;;;;2.25;2.05;;;;;;;;;;4973332;28;20186;-46
2021/12/12 02:20:12;;;;;;;2.28;2.08;;;;;;;;;;4965842;28;20213;-46
2021/12/12 02:22:56;;;;;;;2.08;1.88;;;;;;;;;;4970422;28;20178;-46
2021/12/12 02:36:25;;;;;;;2.05;1.90;;;;;;;;;;4969914;28;20200;-46
2021/12/12 02:38:53;;;;;;;1.73;1.63;;;;;;;;;;4959944;28;20189;-46
2021/12/12 02:41:22;;;;;;;2.38;2.15;;;;;;;;;;4968032;28;20233;-46
2021/12/12 02:43:50;;;;;;;2.13;1.88;;;;;;;;;;4969541;28;20185;-46
2021/12/12 02:46:20;;;;;;;1.90;1.80;;;;;;;;;;4967242;28;20570;-46
2021/12/12 02:48:47;;;;;;;2.10;2.00;;;;;;;;;;4973537;28;20178;-46
2021/12/12 02:51:15;;;;;;;2.00;1.90;;;;;;;;;;4969813;28;20214;-46
2021/12/12 02:53:52;;;;;;;2.30;2.10;;;;;;;;;;4964716;28;20182;-46
2021/12/12 02:56:20;;;;;;;1.75;1.65;;;;;;;;;;4964461;28;20595;-46
2021/12/12 02:58:47;;;;;;;2.15;1.95;;;;;;;;;;4962456;28;20197;-46
2021/12/12 03:01:20;;;;;;;1.95;1.83;;;;;;;;;;4963681;28;20241;-46
2021/12/12 03:03:46;;;;;;;2.05;1.88;;;;;;;;;;4969083;28;20170;-46
2021/12/12 03:06:15;;;;;;;1.83;1.73;;;;;;;;;;4966993;28;20244;-46
2021/12/12 03:08:43;;;;;;;2.35;2.13;;;;;;;;;;4973231;28;20186;-46
2021/12/12 03:11:09;;;;;;;1.70;1.60;;;;;;;;;;4971805;28;20193;-46
2021/12/12 03:13:36;;;;;;;1.75;1.65;;;;;;;;;;4965262;28;20459;-46
2021/12/12 03:16:02;;;;;;;1.70;1.60;;;;;;;;;;4974391;28;20232;-46
2021/12/12 03:18:33;;;;;;;2.25;2.05;;;;;;;;;;4976023;28;20507;-46
2021/12/12 03:21:03;;;;;;;1.90;1.80;;;;;;;;;;4976177;28;20206;-46
2021/12/12 03:23:36;;;;;;;2.25;2.05;;;;;;;;;;4974670;28;20183;-46
2021/12/12 03:26:04;;;;;;;1.88;1.77;;;;;;;;;;4972945;28;20702;-46
2021/12/12 03:28:32;;;;;;;2.38;2.17;;;;;;;;;;4976470;28;20248;-46
2021/12/12 03:30:59;;;;;;;1.77;1.67;;;;;;;;;;4974111;28;20665;-45
2021/12/12 03:33:25;;;;;;;2.35;1.90;;;;;;;;;;4975832;28;20189;-46
2021/12/12 03:35:53;;;;;;;1.88;1.77;;;;;;;;;;4975613;28;20312;-46
2021/12/12 03:38:20;;;;;;;1.85;1.75;;;;;;;;;;4974115;28;20244;-46
2021/12/12 03:40:46;;;;;;;1.88;1.77;;;;;;;;;;4961881;28;20202;-46
2021/12/12 03:43:14;;;;;;;2.00;1.90;;;;;;;;;;4967973;28;20236;-46
2021/12/12 03:45:41;;;;;;;2.00;1.80;;;;;;;;;;4973596;28;20240;-46
2021/12/12 03:48:12;;;;;;;1.90;1.80;;;;;;;;;;4965500;28;20205;-46
2021/12/12 03:50:39;;;;;;;1.67;1.58;;;;;;;;;;4964680;28;20480;-46
2021/12/12 03:53:05;;;;;;;1.80;1.70;;;;;;;;;;4972904;28;20280;-46
2021/12/12 03:55:32;;;;;;;1.80;1.70;;;;;;;;;;4969041;28;20190;-46
2021/12/12 03:57:58;;;;;;;1.85;1.75;;;;;;;;;;4974369;28;20390;-46
2021/12/12 04:00:29;;;;;;;1.83;1.73;;;;;;;;;;4974224;28;20300;-46
2021/12/12 04:02:55;;;;;;;2.08;1.85;;;;;;;;;;4966183;28;20196;-46
2021/12/12 04:05:22;;;;;;;2.00;1.88;;;;;;;;;;4975144;28;20462;-46
2021/12/12 04:07:49;;;;;;;1.50;1.40;;;;;;;;;;4964432;28;20273;-45
2021/12/12 04:10:19;;;;;;;1.70;1.60;;;;;;;;;;4963938;28;20209;-45
2021/12/12 04:12:45;;;;;;;1.77;1.67;;;;;;;;;;4961965;28;20186;-46
2021/12/12 04:15:11;;;;;;;1.85;1.75;;;;;;;;;;4967420;28;20617;-46
2021/12/12 04:17:37;;;;;;;1.73;1.63;;;;;;;;;;4967424;28;20193;-46
2021/12/12 04:20:10;;;;;;;1.70;1.60;;;;;;;;;;4975378;28;20630;-46
2021/12/12 04:22:36;;;;;;;1.77;1.67;;;;;;;;;;4964026;28;20190;-46
2021/12/12 04:25:04;;;;;;;1.90;1.50;;;;;;;;;;4974702;28;20188;-46
2021/12/12 04:27:30;;;;;;;1.58;1.48;;;;;;;;;;4963981;28;20182;-46
2021/12/12 04:30:00;;;;;;;1.60;1.50;;;;;;;;;;4974991;28;20194;-46
2021/12/12 04:32:28;;;;;;;1.73;1.63;;;;;;;;;;4974199;28;20186;-46
2021/12/12 04:34:59;;;;;;;1.75;1.65;;;;;;;;;;4967813;28;20181;-46
2021/12/12 04:37:26;;;;;;;1.50;1.40;;;;;;;;;;4974690;28;20569;-46
2021/12/12 04:39:55;;;;;;;2.10;1.90;;;;;;;;;;4970613;28;20220;-46
2021/12/12 04:42:23;;;;;;;1.58;1.48;;;;;;;;;;4973546;28;20178;-46
2021/12/12 04:44:57;;;;;;;1.60;1.50;;;;;;;;;;4966774;28;20182;-46
2021/12/12 04:50:26;;;;;;;1.48;1.38;;;;;;;;;;4964256;28;20200;-46
2021/12/12 04:53:11;;;;;;;1.58;1.48;;;;;;;;;;4967817;28;20241;-46
2021/12/12 04:55:57;;;;;;;1.60;1.50;;;;;;;;;;4963907;28;20223;-46
2021/12/12 04:58:32;;;;;;;1.63;1.45;;;;;;;;;;4934359;28;20201;-46
2021/12/12 05:01:01;;;;;;;1.90;1.80;;;;;;;;;;4973698;28;20220;-46
2021/12/12 05:03:33;;;;;;;1.60;1.50;;;;;;;;;;4966568;28;20204;-46
2021/12/12 05:06:07;;;;;;;1.50;1.40;;;;;;;;;;4972438;28;20182;-46
2021/12/12 05:09:02;;;;;;;1.88;1.77;;;;;;;;;;4966840;28;20274;-46
2021/12/12 05:11:35;;;;;;;1.60;1.50;;;;;;;;;;4958027;28;20473;-46
2021/12/12 05:14:05;;;;;;;1.48;1.38;;;;;;;;;;4962488;28;20174;-46
2021/12/12 05:16:34;;;;;;;1.50;1.40;;;;;;;;;;4972613;28;20414;-46
2021/12/12 05:19:05;;;;;;;1.55;1.45;;;;;;;;;;4974120;28;20174;-46
2021/12/12 05:21:33;;;;;;;1.35;1.25;;;;;;;;;;4966861;28;20268;-46
2021/12/12 05:24:00;;;;;;;1.63;1.52;;;;;;;;;;4964201;28;20182;-46
2021/12/12 05:26:28;;;;;;;1.50;1.40;;;;;;;;;;4973343;28;20237;-46
2021/12/12 05:29:00;;;;;;;1.40;1.30;;;;;;;;;;4967948;28;20545;-46
2021/12/12 05:31:27;;;;;;;1.30;1.20;;;;;;;;;;4972664;28;20220;-46
2021/12/12 05:33:54;;;;;;;1.40;1.30;;;;;;;;;;4962294;28;20545;-46
2021/12/12 05:36:20;;;;;;;1.20;1.20;;;;;;;;;;4970519;28;20584;-46
2021/12/12 05:38:46;;;;;;;1.50;1.40;;;;;;;;;;4964843;28;20177;-46
2021/12/12 05:41:12;;;;;;;1.45;1.35;;;;;;;;;;4973633;28;20220;-46
2021/12/12 05:43:39;;;;;;;1.40;1.30;;;;;;;;;;4971581;28;20182;-46
2021/12/12 05:46:05;;;;;;;1.55;1.45;;;;;;;;;;4971664;28;20182;-46
2021/12/12 05:48:32;;;;;;;1.40;1.30;;;;;;;;;;4972808;28;20189;-46
2021/12/12 05:51:00;;;;;;;1.73;1.63;;;;;;;;;;4972707;28;20190;-46
2021/12/12 05:53:26;;;;;;;1.50;1.40;;;;;;;;;;4965324;28;20222;-46
2021/12/12 05:55:52;;;;;;;1.60;1.50;;;;;;;;;;4961913;28;20208;-46
2021/12/12 05:58:20;;;;;;;1.58;1.48;;;;;;;;;;4974031;28;20264;-46
2021/12/12 06:01:00;;;;;;;1.50;1.40;;;;;;;;;;4968354;28;20320;-46
2021/12/12 06:03:28;;;;;;;2.03;1.85;;;;;;;;;;4971518;28;20181;-46
2021/12/12 06:05:56;;;;;;;1.67;1.58;;;;;;;;;;4972426;28;20268;-46
2021/12/12 06:08:23;;;;;;;1.85;1.48;;;;;;;;;;4973800;28;20188;-46
2021/12/12 06:10:50;;;;;;;1.60;1.50;;;;;;;;;;4969703;28;20289;-46
2021/12/12 06:13:17;;;;;;;1.60;1.50;;;;;;;;;;4969136;28;20182;-46
2021/12/12 06:15:45;;;;;;;1.55;1.45;;;;;;;;;;4970879;28;20189;-46
2021/12/12 06:18:13;;;;;;;1.50;1.40;;;;;;;;;;4968580;28;20189;-46
2021/12/12 06:20:40;;;;;;;1.83;1.73;;;;;;;;;;4973061;28;20209;-46
2021/12/12 06:23:07;;;;;;;1.70;1.60;;;;;;;;;;4967965;28;20184;-46
2021/12/12 06:25:33;;;;;;;1.58;1.48;;;;;;;;;;4966663;28;20201;-46
2021/12/12 06:27:59;;;;;;;1.90;1.48;;;;;;;;;;4969014;28;20182;-46
2021/12/12 06:30:26;;;;;;;1.58;1.48;;;;;;;;;;4970219;28;20585;-46
2021/12/12 06:32:53;;;;;;;1.40;1.30;;;;;;;;;;4964713;28;20192;-46
2021/12/12 06:35:19;;;;;;;1.65;1.55;;;;;;;;;;4971251;28;20277;-46
2021/12/12 06:37:45;;;;;;;1.52;1.42;;;;;;;;;;4963391;28;20553;-46
2021/12/12 06:40:14;;;;;;;1.60;1.50;;;;;;;;;;4967324;28;20622;-46
2021/12/12 06:42:40;;;;;;;1.65;1.52;;;;;;;;;;4967972;28;20193;-46
2021/12/12 06:45:07;;;;;;;1.65;1.55;;;;;;;;;;4969072;28;20316;-46
2021/12/12 06:47:34;;;;;;;1.60;1.50;;;;;;;;;;4963929;28;20233;-46
2021/12/12 06:50:01;;;;;;;1.40;1.30;;;;;;;;;;4967925;28;20283;-46
2021/12/12 06:52:27;;;;;;;1.48;1.27;;;;;;;;;;4964048;28;20379;-46
2021/12/12 06:54:53;;;;;;;1.40;1.30;;;;;;;;;;4968547;28;20253;-46
2021/12/12 06:57:19;;;;;;;1.50;1.40;;;;;;;;;;4976805;28;20283;-46
2021/12/12 06:59:47;;;;;;;1.65;1.55;;;;;;;;;;4960472;28;20236;-46
2021/12/12 07:02:13;;;;;;;1.80;1.70;;;;;;;;;;4968599;28;20220;-46
2021/12/12 07:04:40;;;;;;;4.90;3.22;;;;;;;;;;4976351;28;20216;-46
2021/12/12 07:07:07;;;;;;;4.97;3.72;;;;;;;;;;4976287;28;20248;-46
2021/12/12 07:09:35;;;;;;;4.70;4.30;;;;;;;;;;4968153;28;20190;-46
2021/12/12 07:12:04;;;;;;;6.68;5.80;;;;;;;;;;4968540;28;20233;-46
2021/12/12 07:14:31;;;;;;;8.00;7.20;;;;;;;;;;4975804;28;20178;-46
2021/12/12 07:16:58;;;;;;;8.57;7.70;;;;;;;;;;4969331;28;20188;-46
2021/12/12 07:19:24;;;;;;;9.13;8.23;;;;;;;;;;4976513;28;20226;-46
2021/12/12 07:21:51;;;;;;;9.75;8.75;;;;;;;;;;4971833;28;20832;-46
2021/12/12 07:24:17;;;;;;;12.05;9.02;;;;;;;;;;4974600;28;20177;-46
2021/12/12 07:26:43;;;;;;;10.65;9.60;;;;;;;;;;4976243;28;20225;-46
2021/12/12 07:29:10;;;;;;;13.63;9.05;;;;;;;;;;4976836;28;20182;-47
2021/12/12 07:31:38;;;;;;;11.88;9.55;;;;;;;;;;4976874;28;20178;-46
2021/12/12 07:34:06;;;;;;;10.43;8.80;;;;;;;;;;4976235;28;20553;-46
2021/12/12 07:36:35;;;;;;;10.93;8.55;;;;;;;;;;4975254;28;20190;-47
2021/12/12 07:39:04;;;;;;;9.88;8.52;;;;;;;;;;4973935;28;20190;-46
2021/12/12 07:41:31;;;;;;;10.20;8.35;;;;;;;;;;4967968;28;20218;-46
2021/12/12 07:43:58;;;;;;;10.68;8.93;;;;;;;;;;4970372;28;20474;-46
2021/12/12 07:46:24;;;;;;;10.63;7.75;;;;;;;;;;4963791;28;20260;-46
2021/12/12 07:48:52;;;;;;;9.88;7.57;;;;;;;;;;4968865;28;20198;-46
2021/12/12 07:51:19;;;;;;;10.70;6.93;;;;;;;;;;4966866;28;20198;-47
2021/12/12 07:53:46;;;;;;;10.82;7.05;;;;;;;;;;4964684;28;20465;-46
2021/12/12 07:56:12;;;;;;;7.97;6.97;;;;;;;;;;4969055;28;20271;-46
2021/12/12 07:58:38;;;;;;;9.82;7.22;;;;;;;;;;4975452;28;20961;-46
2021/12/12 08:01:05;;;;;;;7.40;6.35;;;;;;;;;;4963735;28;20597;-46
2021/12/12 08:03:33;;;;;;;9.68;6.93;;;;;;;;;;4969716;28;20424;-46
2021/12/12 08:06:00;;;;;;;17.73;11.90;;;;;;;;;;4973166;28;20569;-46
2021/12/12 08:08:27;;;;;;;50.15;24.35;;;;;;;;;;4974807;28;20185;-46
2021/12/12 08:10:54;;;;;;;61.28;31.08;;;;;;;;;;4966121;28;20760;-46
2021/12/12 08:13:21;;;;;;;54.60;29.10;;;;;;;;;;4972181;28;20217;-46
2021/12/12 08:15:47;;;;;;;53.45;27.80;;;;;;;;;;4974576;28;20252;-46
2021/12/12 08:18:18;;;;;;;50.50;28.00;;;;;;;;;;4975089;28;20248;-44
2021/12/12 08:20:45;;;;;;;50.85;27.15;;;;;;;;;;4978493;28;20249;-46
2021/12/12 08:23:11;;;;;;;52.20;26.95;;;;;;;;;;4975328;28;20237;-47
2021/12/12 08:25:38;;;;;;;47.58;23.75;;;;;;;;;;4971585;28;20491;-46
2021/12/12 08:28:05;;;;;;;46.97;24.55;;;;;;;;;;4967483;28;20181;-48
2021/12/12 08:30:31;;;;;;;45.58;23.80;;;;;;;;;;4972329;28;20196;-46
2021/12/12 08:32:58;;;;;;;42.72;23.05;;;;;;;;;;4975034;28;20213;-47
2021/12/12 08:35:25;;;;;;;43.08;21.92;;;;;;;;;;4973447;28;20200;-51
2021/12/12 08:37:51;;;;;;;39.70;20.08;;;;;;;;;;4964108;28;20431;-45
2021/12/12 08:40:25;;;;;;;36.67;18.85;;;;;;;;;;4971071;28;20217;-46
2021/12/12 08:42:53;;;;;;;38.10;18.75;;;;;;;;;;4967608;28;20192;-47
2021/12/12 08:45:21;;;;;;;30.50;15.80;;;;;;;;;;4965985;28;20457;-46
2021/12/12 08:47:47;;;;;;;26.85;15.75;;;;;;;;;;4969960;28;20181;-46
2021/12/12 08:50:16;;;;;;;25.67;13.80;;;;;;;;;;4971241;28;20194;-46
2021/12/12 08:52:45;;;;;;;33.40;13.98;;;;;;;;;;4971817;28;20186;-46
2021/12/12 08:55:18;;;;;;;25.42;12.02;;;;;;;;;;4965769;28;20221;-46
2021/12/12 08:57:52;;;;;;;26.60;12.52;;;;;;;;;;4972696;28;20198;-46
2021/12/12 09:00:19;;;;;;;19.50;11.38;;;;;;;;;;4970561;28;20221;-46
2021/12/12 09:02:46;;;;;;;28.42;11.52;;;;;;;;;;4966638;28;20526;-46
2021/12/12 09:05:17;;;;;;;25.23;10.85;;;;;;;;;;4972810;28;20190;-46
2021/12/12 09:07:44;;;;;;;19.95;10.60;;;;;;;;;;4967277;28;20689;-46
2021/12/12 09:10:21;;;;;;;19.20;9.98;;;;;;;;;;4974545;28;20201;-46
2021/12/12 09:13:04;;;;;;;19.23;10.05;;;;;;;;;;4971354;28;20198;-45
2021/12/12 09:15:33;;;;;;;17.52;9.93;;;;;;;;;;4964445;28;20193;-45
2021/12/12 09:18:03;;;;;;;14.55;9.45;;;;;;;;;;4974049;28;20186;-45
2021/12/12 09:20:36;;;;;;;17.63;8.57;;;;;;;;;;4968262;28;20213;-46
2021/12/12 09:23:07;;;;;;;18.08;8.45;;;;;;;;;;4962862;28;20177;-46
2021/12/12 09:25:37;;;;;;;11.82;7.75;;;;;;;;;;4973826;28;20457;-46
2021/12/12 09:28:07;;;;;;;15.48;8.07;;;;;;;;;;4966847;28;20217;-46
2021/12/12 09:30:34;;;;;;;14.45;7.78;;;;;;;;;;4965761;28;20192;-46
2021/12/12 09:33:04;;;;;;;13.38;7.18;;;;;;;;;;4963306;28;20196;-46
2021/12/12 09:35:32;;;;;;;13.20;7.47;;;;;;;;;;4964843;28;20216;-46
2021/12/12 09:38:02;;;;;;;16.27;7.65;;;;;;;;;;4970871;28;20200;-46
2021/12/12 09:40:36;;;;;;;16.15;7.47;;;;;;;;;;4973506;28;20211;-46
2021/12/12 09:43:12;;;;;;;12.85;7.28;;;;;;;;;;4966647;28;20336;-46
2021/12/12 09:45:38;;;;;;;12.90;6.93;;;;;;;;;;4971465;28;20455;-45
2021/12/12 09:51:14;;;;;;;11.73;7.22;;;;;;;;;;4965508;28;20177;-46
2021/12/12 09:51:36;;;;;;;12.30;7.22;;;;;;;;;;4971451;28;20516;-46
2021/12/12 09:54:14;;;;;;;13.52;6.47;;;;;;;;;;4959593;28;20581;-46
2021/12/12 09:56:59;;;;;;;10.20;6.95;;;;;;;;;;4970722;28;20197;-47
2021/12/12 09:59:43;;;;;;;16.88;7.75;;;;;;;;;;4958607;28;20820;-46
2021/12/12 10:02:09;;;;;;;21.52;10.70;;;;;;;;;;4972152;28;20300;-46
2021/12/12 10:04:53;;;;;;;24.35;13.02;;;;;;;;;;4968183;28;20313;-46
2021/12/12 10:07:34;;;;;;;52.20;23.27;;;;;;;;;;4972775;28;20539;-45
2021/12/12 10:10:05;;;;;;;51.67;24.98;;;;;;;;;;4968571;28;20460;-45
2021/12/12 10:12:33;;;;;;;62.92;26.00;;;;;;;;;;4970006;28;20492;-46
2021/12/12 10:14:59;;;;;;;81.65;32.20;;;;;;;;;;4972306;28;20185;-46
2021/12/12 10:17:44;;;;;;;91.68;32.97;;;;;;;;;;4965247;28;20746;-46
2021/12/12 10:20:13;;;;;;;66.10;27.40;;;;;;;;;;4965625;28;20221;-46
2021/12/12 10:22:39;;;;;;;60.95;25.50;;;;;;;;;;4966085;28;20192;-46
2021/12/12 10:25:16;;;;;;;59.45;21.35;;;;;;;;;;4962986;28;20186;-46
2021/12/12 10:27:55;;;;;;;49.22;20.13;;;;;;;;;;4969943;28;20182;-46
2021/12/12 10:30:25;;;;;;;52.97;20.00;;;;;;;;;;4976027;28;20189;-46
2021/12/12 10:33:05;;;;;;;38.50;17.08;;;;;;;;;;4969594;28;20181;-46
2021/12/12 10:35:43;;;;;;;39.67;17.52;;;;;;;;;;4973482;28;20193;-46
2021/12/12 10:38:11;;;;;;;35.28;15.73;;;;;;;;;;4975115;28;20340;-46
2021/12/12 10:40:56;;;;;;;41.05;16.50;;;;;;;;;;4972741;28;20288;-46
2021/12/12 10:43:33;;;;;;;46.00;18.00;;;;;;;;;;4976091;28;20189;-46
2021/12/12 10:46:05;;;;;;;41.45;17.70;;;;;;;;;;4974732;28;20202;-46
2021/12/12 10:48:52;;;;;;;42.00;18.63;;;;;;;;;;4975848;28;20174;-48
2021/12/12 10:51:21;;;;;;;50.00;20.75;;;;;;;;;;4960403;28;20218;-46
2021/12/12 10:54:08;;;;;;;53.17;21.08;;;;;;;;;;4973539;28;20550;-46
2021/12/12 10:56:43;;;;;;;49.72;19.48;;;;;;;;;;4972739;28;20202;-46
2021/12/12 10:59:19;;;;;;;46.25;19.20;;;;;;;;;;4976780;28;20558;-46
2021/12/12 11:01:47;;;;;;;44.85;16.70;;;;;;;;;;4969105;28;20209;-46
2021/12/12 11:04:18;;;;;;;39.85;15.75;;;;;;;;;;4976858;28;20204;-46
2021/12/12 11:06:57;;;;;;;35.95;14.15;;;;;;;;;;4975956;28;20580;-46
2021/12/12 11:09:23;;;;;;;34.35;14.27;;;;;;;;;;4975071;28;20866;-46
2021/12/12 11:12:07;;;;;;;34.47;13.68;;;;;;;;;;4965326;28;20183;-46
2021/12/12 11:14:41;;;;;;;32.00;13.52;;;;;;;;;;4967004;28;20206;-46
2021/12/12 11:17:14;;;;;;;33.03;13.73;;;;;;;;;;4963761;28;20238;-46
2021/12/12 11:19:42;;;;;;;30.38;12.23;;;;;;;;;;4976013;28;20482;-46
2021/12/12 11:22:15;;;;;;;26.45;11.32;;;;;;;;;;4976017;28;20218;-46
2021/12/12 11:24:44;;;;;;;29.20;11.85;;;;;;;;;;4968837;28;20182;-46
2021/12/12 11:27:16;;;;;;;27.23;10.70;;;;;;;;;;4976634;28;20209;-46
2021/12/12 11:29:45;;;;;;;22.58;10.90;;;;;;;;;;4975825;28;20196;-46
2021/12/12 11:32:14;;;;;;;28.77;10.40;;;;;;;;;;4969352;28;20194;-46
2021/12/12 11:34:46;;;;;;;22.77;9.80;;;;;;;;;;4976345;28;20214;-47
2021/12/12 11:37:31;;;;;;;22.98;9.43;;;;;;;;;;4963877;28;20221;-46
2021/12/12 11:40:13;;;;;;;24.70;9.43;;;;;;;;;;4972247;28;20195;-45
2021/12/12 11:43:08;;;;;;;21.70;9.82;;;;;;;;;;4965242;28;20273;-46
2021/12/12 11:45:39;;;;;;;19.67;8.60;;;;;;;;;;4953168;28;20200;-46
2021/12/12 11:48:10;;;;;;;23.10;8.63;;;;;;;;;;4972304;28;20188;-46
2021/12/12 11:50:43;;;;;;;16.90;8.00;;;;;;;;;;4968105;28;20216;-46
2021/12/12 11:53:12;;;;;;;19.00;8.68;;;;;;;;;;4967656;28;20220;-46
2021/12/12 11:55:41;;;;;;;16.73;7.57;;;;;;;;;;4967985;28;20185;-46
2021/12/12 11:58:13;;;;;;;17.88;8.10;;;;;;;;;;4967944;28;20191;-46
2021/12/12 12:00:40;;;;;;;21.10;9.85;;;;;;;;;;4971215;28;20658;-46
2021/12/12 12:03:24;;;;;;;97.50;43.85;;;;;;;;;;4968733;28;20197;-46
2021/12/12 12:05:50;;;;;;;140.65;62.03;;;;;;;;;;4968915;28;20260;-46
2021/12/12 12:08:19;;;;;;;139.00;62.47;;;;;;;;;;4975149;28;20270;-46
2021/12/12 12:11:11;;;;;;;130.82;57.10;;;;;;;;;;4965338;28;20519;-46
2021/12/12 12:13:56;;;;;;;121.95;55.80;;;;;;;;;;4972283;28;20181;-46
2021/12/12 12:16:30;;;;;;;124.60;50.83;;;;;;;;;;4974935;28;20190;-46
2021/12/12 12:19:15;;;;;;;100.22;47.80;;;;;;;;;;4970370;28;20264;-46
2021/12/12 12:21:55;;;;;;;96.10;44.17;;;;;;;;;;4973640;28;20363;-46
2021/12/12 12:24:37;;;;;;;90.80;40.95;;;;;;;;;;4969588;28;20193;-46
2021/12/12 12:27:06;;;;;;;91.00;37.90;;;;;;;;;;4967729;28;20213;-46
2021/12/12 12:29:52;;;;;;;77.32;36.90;;;;;;;;;;4967878;28;20589;-46
2021/12/12 12:32:44;;;;;;;68.53;33.40;;;;;;;;;;4968616;28;20473;-46
2021/12/12 12:35:29;;;;;;;62.60;30.00;;;;;;;;;;4963226;28;20273;-46
2021/12/12 12:38:17;;;;;;;67.40;30.08;;;;;;;;;;4971874;28;20186;-49
2021/12/12 12:40:55;;;;;;;71.07;30.98;;;;;;;;;;4966106;28;20206;-46
2021/12/12 12:43:24;;;;;;;52.92;27.08;;;;;;;;;;4975943;28;20536;-46
2021/12/12 12:46:11;;;;;;;49.78;26.65;;;;;;;;;;4970135;28;20561;-46
2021/12/12 12:48:45;;;;;;;51.30;24.92;;;;;;;;;;4932880;28;20194;-46
2021/12/12 12:51:11;;;;;;;51.85;23.48;;;;;;;;;;4963449;28;20223;-46
2021/12/12 12:53:58;;;;;;;44.50;21.90;;;;;;;;;;4966463;28;20296;-46
2021/12/12 12:56:43;;;;;;;44.50;22.17;;;;;;;;;;4974486;28;20301;-46
2021/12/12 12:59:27;;;;;;;37.83;18.42;;;;;;;;;;4960663;28;20226;-46
2021/12/12 13:02:12;;;;;;;39.97;18.90;;;;;;;;;;4967342;28;20609;-46
2021/12/12 13:04:48;;;;;;;33.88;16.33;;;;;;;;;;4965479;28;20190;-46
2021/12/12 13:07:18;;;;;;;35.08;16.13;;;;;;;;;;4967423;28;20236;-46
2021/12/12 13:09:49;;;;;;;30.10;15.40;;;;;;;;;;4970191;28;20209;-46
2021/12/12 13:12:31;;;;;;;26.05;13.68;;;;;;;;;;4963723;28;20249;-46
2021/12/12 13:15:01;;;;;;;27.95;13.23;;;;;;;;;;4960115;28;20814;-46
2021/12/12 13:17:43;;;;;;;28.33;13.05;;;;;;;;;;4974038;28;20239;-46
2021/12/12 13:20:28;;;;;;;31.92;14.70;;;;;;;;;;4960367;28;20557;-46
2021/12/12 13:23:18;;;;;;;32.20;15.30;;;;;;;;;;4968300;28;20177;-46
2021/12/12 13:25:48;;;;;;;30.23;14.65;;;;;;;;;;4973536;28;20185;-46
2021/12/12 13:28:27;;;;;;;29.65;14.20;;;;;;;;;;4974660;28;20192;-46
2021/12/12 13:31:00;;;;;;;29.60;13.20;;;;;;;;;;4963484;28;20193;-46
2021/12/12 13:33:47;;;;;;;25.00;13.18;;;;;;;;;;4973897;28;20627;-46
2021/12/12 13:36:27;;;;;;;26.77;12.80;;;;;;;;;;4962930;28;20205;-46
2021/12/12 13:39:11;;;;;;;24.63;10.82;;;;;;;;;;4971273;28;20178;-46
2021/12/12 13:41:53;;;;;;;25.90;10.27;;;;;;;;;;4965835;28;20772;-46
2021/12/12 13:44:31;;;;;;;20.50;9.57;;;;;;;;;;4973737;28;20177;-46
2021/12/12 13:47:11;;;;;;;19.80;10.00;;;;;;;;;;4966862;28;20178;-46
2021/12/12 13:49:47;;;;;;;20.85;8.88;;;;;;;;;;4973279;28;20181;-46
2021/12/12 13:52:21;;;;;;;25.23;9.55;;;;;;;;;;4965856;28;20193;-46
2021/12/12 13:54:54;;;;;;;24.27;9.07;;;;;;;;;;4960391;28;20587;-46
2021/12/12 13:57:23;;;;;;;17.38;8.52;;;;;;;;;;4966547;28;20201;-46
2021/12/12 14:00:04;;;;;;;19.33;8.77;;;;;;;;;;4973223;28;20181;-46
2021/12/12 14:02:31;;;;;;;12.40;7.47;;;;;;;;;;4967247;28;20212;-46
2021/12/12 14:05:12;;;;;;;15.93;7.43;;;;;;;;;;4965531;28;20193;-46
2021/12/12 14:07:42;;;;;;;18.55;8.32;;;;;;;;;;4965444;28;20194;-46
2021/12/12 14:10:15;;;;;;;18.33;7.70;;;;;;;;;;4971152;28;20190;-46
2021/12/12 14:12:43;;;;;;;17.45;6.82;;;;;;;;;;4965652;28;20281;-46
2021/12/12 14:15:13;;;;;;;14.30;6.50;;;;;;;;;;4973241;28;20204;-46
2021/12/12 14:17:45;;;;;;;16.35;6.75;;;;;;;;;;4971236;28;20207;-46
2021/12/12 14:20:17;;;;;;;15.32;6.25;;;;;;;;;;4968609;28;20240;-46
2021/12/12 14:22:43;;;;;;;14.38;6.30;;;;;;;;;;4965891;28;20185;-46
2021/12/12 14:25:10;;;;;;;13.98;5.65;;;;;;;;;;4973223;28;20190;-46
2021/12/12 14:27:40;;;;;;;11.35;5.80;;;;;;;;;;4971473;28;20340;-46
2021/12/12 14:30:07;;;;;;;12.93;5.82;;;;;;;;;;4972883;28;20189;-46
2021/12/12 14:32:38;;;;;;;13.05;5.75;;;;;;;;;;4971327;28;20193;-46
2021/12/12 14:35:08;;;;;;;12.05;5.47;;;;;;;;;;4972375;28;20189;-46
2021/12/12 14:37:35;;;;;;;11.43;5.15;;;;;;;;;;4964113;28;20189;-46
2021/12/12 14:40:21;;;;;;;14.00;5.20;;;;;;;;;;4962984;28;20197;-46
2021/12/12 14:42:51;;;;;;;10.35;4.60;;;;;;;;;;4957940;28;20241;-46
2021/12/12 14:45:19;;;;;;;13.27;5.10;;;;;;;;;;4968423;28;20573;-46
2021/12/12 14:47:47;;;;;;;8.35;4.70;;;;;;;;;;4954752;28;20692;-46
2021/12/12 14:50:22;;;;;;;11.23;4.32;;;;;;;;;;4966863;28;20186;-46
2021/12/12 14:52:49;;;;;;;10.00;4.70;;;;;;;;;;4964667;28;20553;-46
2021/12/12 14:55:20;;;;;;;9.23;5.00;;;;;;;;;;4962466;28;20193;-46
2021/12/12 14:57:48;;;;;;;33.30;13.88;;;;;;;;;;4962531;28;20277;-46
2021/12/12 15:00:22;;;;;;;31.50;15.00;;;;;;;;;;4968608;28;20208;-46
2021/12/12 15:02:50;;;;;;;29.45;12.52;;;;;;;;;;4971526;28;20178;-46
2021/12/12 15:05:20;;;;;;;26.60;12.18;;;;;;;;;;4970200;28;20186;-46
2021/12/12 15:07:47;;;;;;;26.95;11.73;;;;;;;;;;4968976;28;20178;-46
2021/12/12 15:10:26;;;;;;;24.52;10.00;;;;;;;;;;4968500;28;20879;-46